Time;durP1;ratioP1;P1;durP2;ratioP2;P2;SDS_P1;SDS_P2;PMS_P1;PMS_P2;Temp;Humidity;BMP_temperature;BMP_pressure;BME280_temperature;BME280_humidity;BME280_pressure;Samples;Min_cycle;Max_cycle;Signal;HPM_P1;HPM_P2
2021/11/01 00:01:50;;;;;;;0.20;0.20;;;13.20;78.60;;;;;;5011832;28;20030;-78
2021/11/01 00:04:16;;;;;;;0.20;0.20;;;13.10;78.80;;;;;;5011768;28;20088;-78
2021/11/01 00:06:43;;;;;;;0.20;0.20;;;12.70;79.30;;;;;;5011839;28;20460;-78
2021/11/01 00:09:09;;;;;;;0.20;0.20;;;12.80;80.10;;;;;;5010459;28;20088;-78
2021/11/01 00:11:35;;;;;;;0.30;0.30;;;12.70;79.10;;;;;;5011820;28;20022;-77
2021/11/01 00:14:01;;;;;;;0.20;0.20;;;12.50;80.40;;;;;;4994105;28;20126;-78
2021/11/01 00:16:29;;;;;;;0.30;0.30;;;12.10;81.20;;;;;;5010457;28;20045;-78
2021/11/01 00:18:55;;;;;;;0.20;0.20;;;12.00;82.40;;;;;;5013149;28;20018;-77
2021/11/01 00:21:22;;;;;;;0.13;0.13;;;11.80;82.60;;;;;;5014070;28;20192;-77
2021/11/01 00:23:47;;;;;;;0.90;0.90;;;11.80;83.00;;;;;;5013933;28;20147;-78
2021/11/01 00:26:14;;;;;;;0.17;0.17;;;11.70;83.80;;;;;;5015031;28;20073;-77
2021/11/01 00:28:40;;;;;;;0.13;0.13;;;11.90;82.50;;;;;;5013799;28;20026;-77
2021/11/01 00:31:06;;;;;;;0.40;0.40;;;11.80;83.00;;;;;;5015025;28;20113;-78
2021/11/01 00:33:32;;;;;;;0.20;0.20;;;11.80;83.50;;;;;;5015040;28;20161;-78
2021/11/01 00:35:58;;;;;;;0.22;0.22;;;12.00;82.70;;;;;;5014925;28;20034;-77
2021/11/01 00:38:24;;;;;;;0.20;0.20;;;12.00;82.70;;;;;;5014965;28;20522;-78
2021/11/01 00:40:50;;;;;;;0.20;0.20;;;12.10;82.50;;;;;;5014974;28;20034;-78
2021/11/01 00:43:16;;;;;;;0.20;0.20;;;12.10;82.20;;;;;;5014858;28;20482;-78
2021/11/01 00:45:42;;;;;;;0.20;0.20;;;12.10;82.40;;;;;;5014630;28;20054;-77
2021/11/01 00:48:07;;;;;;;0.10;0.10;;;11.90;83.50;;;;;;5014694;28;20022;-77
2021/11/01 00:50:36;;;;;;;0.20;0.20;;;11.80;83.30;;;;;;5014744;28;20022;-78
2021/11/01 00:53:02;;;;;;;0.10;0.10;;;11.60;83.30;;;;;;5014734;28;20104;-78
2021/11/01 00:55:48;;;;;;;0.20;0.20;;;11.20;85.10;;;;;;5014523;28;20120;-78
2021/11/01 00:58:14;;;;;;;0.20;0.20;;;10.90;85.40;;;;;;5014714;28;20029;-77
2021/11/01 01:00:40;;;;;;;0.20;0.20;;;10.90;86.80;;;;;;4996966;28;20402;-78
2021/11/01 01:03:06;;;;;;;0.25;0.25;;;11.00;87.20;;;;;;5014500;28;20445;-78
2021/11/01 01:05:32;;;;;;;0.30;0.30;;;11.10;87.50;;;;;;4996871;28;20022;-78
2021/11/01 01:07:58;;;;;;;0.20;0.20;;;11.00;86.90;;;;;;5014425;28;20037;-77
2021/11/01 01:10:24;;;;;;;0.20;0.20;;;10.90;88.00;;;;;;5013152;28;20052;-78
2021/11/01 01:12:49;;;;;;;0.20;0.20;;;10.80;88.60;;;;;;5014332;28;20034;-77
2021/11/01 01:15:20;;;;;;;0.30;0.30;;;10.70;89.10;;;;;;5014286;28;20232;-78
2021/11/01 01:17:47;;;;;;;0.20;0.20;;;10.80;88.30;;;;;;5013016;28;20083;-77
2021/11/01 01:20:14;;;;;;;0.20;0.20;;;10.80;88.70;;;;;;5014320;28;20426;-78
2021/11/01 01:22:43;;;;;;;0.20;0.20;;;10.80;87.50;;;;;;5014104;28;20536;-77
2021/11/01 01:27:50;;;;;;;0.20;0.20;;;10.40;87.50;;;;;;5013832;28;20018;-78
2021/11/01 01:30:17;;;;;;;0.25;0.25;;;10.30;89.10;;;;;;5013117;28;20028;-78
2021/11/01 01:32:44;;;;;;;0.20;0.20;;;10.30;89.00;;;;;;5012760;28;20026;-78
2021/11/01 01:35:11;;;;;;;0.20;0.20;;;10.30;89.20;;;;;;5012724;28;20527;-78
2021/11/01 01:37:37;;;;;;;0.30;0.30;;;10.20;89.00;;;;;;5013957;28;20109;-77
2021/11/01 01:40:09;;;;;;;0.20;0.20;;;10.10;89.10;;;;;;5012596;28;20168;-78
2021/11/01 01:42:37;;;;;;;0.20;0.20;;;10.10;90.00;;;;;;5013768;28;20144;-78
2021/11/01 01:45:06;;;;;;;0.30;0.30;;;10.20;90.20;;;;;;5012457;28;20176;-77
2021/11/01 01:47:32;;;;;;;0.95;0.95;;;10.30;89.90;;;;;;5013688;28;20030;-78
2021/11/01 01:49:58;;;;;;;0.40;0.40;;;10.40;88.90;;;;;;5013557;28;20022;-78
2021/11/01 01:52:24;;;;;;;0.30;0.30;;;10.50;88.60;;;;;;5013708;28;20419;-78
2021/11/01 01:54:50;;;;;;;0.20;0.20;;;10.70;88.10;;;;;;5012093;28;20022;-78
2021/11/01 01:57:16;;;;;;;0.20;0.20;;;10.80;87.70;;;;;;5013528;28;20067;-78
2021/11/01 01:59:43;;;;;;;0.20;0.20;;;10.90;87.00;;;;;;5013468;28;20021;-77
2021/11/01 02:02:09;;;;;;;0.25;0.25;;;10.90;86.70;;;;;;5012101;28;20441;-78
2021/11/01 02:04:37;;;;;;;1.23;0.30;;;10.90;87.00;;;;;;5011719;28;20508;-78
2021/11/01 02:07:22;;;;;;;0.20;0.20;;;10.90;87.00;;;;;;5013357;28;20504;-77
2021/11/01 02:09:51;;;;;;;0.22;0.22;;;10.80;86.70;;;;;;4995583;28;20026;-77
2021/11/01 02:12:29;;;;;;;1.08;0.55;;;10.80;87.00;;;;;;5012038;28;20064;-77
2021/11/01 02:15:02;;;;;;;0.28;0.28;;;10.90;86.80;;;;;;5011720;28;20078;-78
2021/11/01 02:17:29;;;;;;;0.22;0.22;;;10.80;87.60;;;;;;5013148;28;20029;-77
2021/11/01 02:20:06;;;;;;;0.15;0.15;;;10.80;88.10;;;;;;5011817;28;20478;-78
2021/11/01 02:22:35;;;;;;;0.20;0.20;;;10.80;88.40;;;;;;5013058;28;20050;-78
2021/11/01 02:25:08;;;;;;;0.10;0.10;;;10.90;88.00;;;;;;5012815;28;20129;-78
2021/11/01 02:27:37;;;;;;;0.30;0.30;;;11.00;87.70;;;;;;5012787;28;20022;-78
2021/11/01 02:30:10;;;;;;;0.20;0.20;;;11.10;87.50;;;;;;5011699;28;20065;-77
2021/11/01 02:32:41;;;;;;;0.20;0.20;;;11.20;86.40;;;;;;5011605;28;20121;-78
2021/11/01 02:35:08;;;;;;;0.20;0.20;;;11.10;86.20;;;;;;5011467;28;20498;-78
2021/11/01 02:37:37;;;;;;;0.20;0.20;;;11.00;86.60;;;;;;5011483;28;20300;-78
2021/11/01 02:40:04;;;;;;;0.20;0.20;;;11.00;86.30;;;;;;5012769;28;20018;-77
2021/11/01 02:42:29;;;;;;;0.20;0.20;;;10.90;87.10;;;;;;5012649;28;20030;-78
2021/11/01 02:45:05;;;;;;;0.20;0.20;;;11.00;86.40;;;;;;5011144;28;20030;-78
2021/11/01 02:47:32;;;;;;;0.13;0.13;;;11.00;86.10;;;;;;5011496;28;20053;-78
2021/11/01 02:49:59;;;;;;;0.55;0.55;;;10.90;85.80;;;;;;4994779;28;20029;-77
2021/11/01 02:52:27;;;;;;;0.20;0.20;;;10.60;86.70;;;;;;5011445;28;20066;-78
2021/11/01 02:54:54;;;;;;;0.22;0.22;;;10.40;88.00;;;;;;5012425;28;20022;-78
2021/11/01 02:57:20;;;;;;;0.20;0.20;;;10.30;88.80;;;;;;5011196;28;20026;-78
2021/11/01 02:59:47;;;;;;;0.98;0.98;;;10.30;89.60;;;;;;5011045;28;20040;-78
2021/11/01 03:02:13;;;;;;;1.02;0.95;;;10.10;89.50;;;;;;5012440;28;20535;-78
2021/11/01 03:04:39;;;;;;;0.20;0.20;;;10.00;90.00;;;;;;5010965;28;20116;-78
2021/11/01 03:07:06;;;;;;;0.20;0.20;;;9.90;90.20;;;;;;5012437;28;20037;-78
2021/11/01 03:09:34;;;;;;;0.20;0.20;;;10.00;90.60;;;;;;5011151;28;20037;-78
2021/11/01 03:12:03;;;;;;;0.30;0.30;;;10.10;90.40;;;;;;5011077;28;20105;-78
2021/11/01 03:14:33;;;;;;;0.20;0.20;;;10.30;89.90;;;;;;4994468;28;20245;-78
2021/11/01 03:17:03;;;;;;;0.30;0.30;;;10.40;89.10;;;;;;5012213;28;20022;-78
2021/11/01 03:19:30;;;;;;;0.20;0.20;;;10.50;89.00;;;;;;5010924;28;20055;-77
2021/11/01 03:22:03;;;;;;;0.20;0.20;;;10.50;88.20;;;;;;5012258;28;20049;-76
2021/11/01 03:24:33;;;;;;;0.30;0.30;;;10.30;88.40;;;;;;5011872;28;20486;-77
2021/11/01 03:27:01;;;;;;;0.30;0.30;;;10.30;88.80;;;;;;5010705;28;20033;-78
2021/11/01 03:29:28;;;;;;;0.20;0.20;;;10.10;89.60;;;;;;5011949;28;20418;-78
2021/11/01 03:31:55;;;;;;;0.20;0.20;;;10.00;90.00;;;;;;5012141;28;20022;-78
2021/11/01 03:34:22;;;;;;;0.20;0.20;;;10.00;89.80;;;;;;5012006;28;20029;-78
2021/11/01 03:36:49;;;;;;;0.57;0.32;;;10.10;90.10;;;;;;5010648;28;20037;-78
2021/11/01 03:39:15;;;;;;;0.20;0.20;;;10.20;89.40;;;;;;5010798;28;20057;-77
2021/11/01 03:41:43;;;;;;;0.30;0.30;;;10.30;89.60;;;;;;5011962;28;20036;-77
2021/11/01 03:44:15;;;;;;;0.20;0.20;;;10.50;88.80;;;;;;5011866;28;20056;-77
2021/11/01 03:49:09;;;;;;;0.88;0.88;;;10.60;87.70;;;;;;5010548;28;20474;-78
2021/11/01 03:51:50;;;;;;;0.20;0.20;;;10.50;87.30;;;;;;5010789;28;20033;-78
2021/11/01 03:54:20;;;;;;;0.22;0.22;;;10.30;88.20;;;;;;5026331;23;20041;-75
2021/11/01 03:56:47;;;;;;;0.20;0.20;;;10.20;88.60;;;;;;5015716;28;20105;-76
2021/11/01 03:59:14;;;;;;;0.52;0.52;;;10.10;89.30;;;;;;5015817;28;20474;-76
2021/11/01 04:01:43;;;;;;;0.30;0.30;;;10.20;89.00;;;;;;5015943;28;20113;-76
2021/11/01 04:04:10;;;;;;;0.20;0.20;;;10.10;88.90;;;;;;5014433;28;20035;-75
2021/11/01 04:06:39;;;;;;;0.85;0.85;;;10.30;88.80;;;;;;4997813;28;20508;-76
2021/11/01 04:09:05;;;;;;;0.20;0.20;;;10.30;88.50;;;;;;5014408;28;20385;-75
2021/11/01 04:11:32;;;;;;;0.20;0.20;;;10.30;88.70;;;;;;5014388;28;20037;-75
2021/11/01 04:14:01;;;;;;;0.80;0.80;;;10.20;88.60;;;;;;5014318;28;20160;-75
2021/11/01 04:16:37;;;;;;;0.20;0.20;;;10.20;89.00;;;;;;5015316;28;20389;-76
2021/11/01 04:19:30;;;;;;;0.30;0.30;;;10.30;88.60;;;;;;5015517;28;20022;-75
2021/11/01 04:21:49;;;;;;;0.30;0.30;;;10.30;88.10;;;;;;5015325;28;20014;-76
2021/11/01 04:24:19;;;;;;;0.20;0.20;;;10.30;88.40;;;;;;5015625;28;20385;-76
2021/11/01 04:26:45;;;;;;;0.20;0.20;;;10.30;88.50;;;;;;5015319;28;20034;-76
2021/11/01 04:29:12;;;;;;;0.20;0.20;;;10.40;88.40;;;;;;5013943;28;20453;-76
2021/11/01 04:31:41;;;;;;;0.20;0.20;;;10.60;87.70;;;;;;4997601;28;20032;-76
2021/11/01 04:34:17;;;;;;;0.20;0.20;;;10.70;86.90;;;;;;5013896;28;20121;-76
2021/11/01 04:36:43;;;;;;;0.30;0.30;;;10.80;86.70;;;;;;5013834;28;20034;-76
2021/11/01 04:44:50;;;;;;;0.20;0.20;;;10.90;85.50;;;;;;5014949;28;20041;-76
2021/11/01 04:55:19;;;;;;;0.20;0.20;;;10.80;86.20;;;;;;5014563;28;20026;-76
2021/11/01 04:57:45;;;;;;;0.20;0.20;;;11.00;86.50;;;;;;5014684;28;20393;-76
2021/11/01 05:00:12;;;;;;;0.20;0.20;;;11.10;85.90;;;;;;5013295;28;20113;-76
2021/11/01 05:02:42;;;;;;;0.25;0.25;;;11.10;85.20;;;;;;5014821;28;20022;-76
2021/11/01 05:05:09;;;;;;;0.20;0.20;;;11.00;85.20;;;;;;5013643;28;20018;-74
2021/11/01 05:07:35;;;;;;;0.20;0.20;;;10.90;86.70;;;;;;5013281;28;20084;-73
2021/11/01 05:10:13;;;;;;;0.13;0.13;;;10.80;86.20;;;;;;5014547;28;20025;-74
2021/11/01 05:12:43;;;;;;;0.20;0.20;;;10.70;86.60;;;;;;5014532;28;20101;-74
2021/11/01 05:15:13;;;;;;;0.20;0.20;;;10.80;86.30;;;;;;5012968;28;20030;-74
2021/11/01 05:17:56;;;;;;;0.20;0.20;;;10.90;86.20;;;;;;5014323;28;20037;-74
2021/11/01 05:20:41;;;;;;;0.20;0.20;;;10.90;85.90;;;;;;5013007;28;20026;-74
2021/11/01 05:23:17;;;;;;;0.20;0.20;;;11.10;85.40;;;;;;5014343;28;20072;-73
2021/11/01 05:25:49;;;;;;;0.40;0.40;;;11.00;84.80;;;;;;5014239;28;20018;-74
2021/11/01 05:30:45;;;;;;;0.30;0.30;;;10.60;86.50;;;;;;5012743;28;20030;-73
2021/11/01 05:35:36;;;;;;;0.65;0.65;;;10.20;87.80;;;;;;5013943;28;20121;-74
2021/11/01 05:38:02;;;;;;;0.20;0.20;;;10.20;88.20;;;;;;5013971;28;20040;-74
2021/11/01 05:40:28;;;;;;;0.20;0.20;;;10.20;88.20;;;;;;5012616;28;20120;-74
2021/11/01 05:42:54;;;;;;;0.15;0.15;;;10.20;88.00;;;;;;5012514;28;20111;-74
2021/11/01 05:45:20;;;;;;;0.20;0.20;;;10.20;88.40;;;;;;5012507;28;20072;-73
2021/11/01 05:47:52;;;;;;;0.30;0.30;;;10.20;88.70;;;;;;5012635;28;20079;-74
2021/11/01 05:50:18;;;;;;;;;;;10.30;87.90;;;;;;5014212;28;20029;-74
2021/11/01 05:52:45;;;;;;;0.20;0.20;;;10.30;87.80;;;;;;5012450;28;19953;-74
2021/11/01 06:00:45;;;;;;;0.20;0.20;;;10.20;88.40;;;;;;5013738;28;20489;-73
2021/11/01 06:13:27;;;;;;;0.20;0.20;;;10.50;88.10;;;;;;5013428;28;20030;-74
2021/11/01 06:15:53;;;;;;;0.30;0.30;;;10.70;87.40;;;;;;5011627;28;20135;-74
2021/11/01 06:18:19;;;;;;;0.32;0.32;;;10.70;87.60;;;;;;5013071;28;20053;-73
2021/11/01 06:20:45;;;;;;;0.20;0.20;;;10.70;87.30;;;;;;5013151;28;20030;-74
2021/11/01 06:23:12;;;;;;;0.50;0.50;;;10.70;87.00;;;;;;5013035;28;20032;-74
2021/11/01 06:25:38;;;;;;;0.40;0.40;;;10.90;86.50;;;;;;4995278;28;20032;-74
2021/11/01 06:28:04;;;;;;;0.20;0.20;;;11.00;86.00;;;;;;5011825;28;20033;-74
2021/11/01 06:30:37;;;;;;;0.20;0.20;;;11.10;85.90;;;;;;5011704;28;20026;-74
2021/11/01 06:33:18;;;;;;;0.20;0.20;;;11.20;85.70;;;;;;5012984;28;20102;-74
2021/11/01 07:16:57;;;;;;;6.55;5.93;;;11.90;83.80;;;;;;4990102;28;20034;-76
2021/11/01 08:38:12;;;;;;;0.30;0.30;;;12.80;99.90;;;;;;5011398;28;20034;-77
2021/11/01 09:07:15;;;;;;;0.20;0.20;;;12.30;99.90;;;;;;5013729;28;20425;-78
2021/11/01 09:21:12;;;;;;;0.20;0.20;;;12.40;99.90;;;;;;5011291;28;20030;-77
2021/11/01 09:28:55;;;;;;;1.17;0.90;;;12.30;99.90;;;;;;5014033;28;20022;-76
2021/11/01 09:37:08;;;;;;;0.20;0.20;;;12.60;99.90;;;;;;5014922;28;20034;-79
2021/11/01 09:40:55;;;;;;;0.25;0.25;;;12.60;99.90;;;;;;5012161;28;20117;-76
2021/11/01 09:42:33;;;;;;;0.10;0.10;;;12.60;99.90;;;;;;5012308;28;20033;-76
2021/11/01 09:45:00;;;;;;;0.20;0.20;;;12.70;99.90;;;;;;5012029;28;20030;-75
2021/11/01 09:47:26;;;;;;;0.10;0.10;;;12.60;99.90;;;;;;5013491;28;20129;-76
2021/11/01 09:49:52;;;;;;;0.15;0.15;;;12.60;99.90;;;;;;5012136;28;20026;-76
2021/11/01 09:52:19;;;;;;;0.20;0.20;;;12.50;99.90;;;;;;5012985;28;20029;-75
2021/11/01 09:54:46;;;;;;;0.20;0.20;;;12.30;99.90;;;;;;4995710;28;20033;-75
2021/11/01 09:57:24;;;;;;;0.35;0.35;;;12.40;99.90;;;;;;5012092;28;20026;-76
2021/11/01 09:59:51;;;;;;;0.20;0.20;;;12.40;99.90;;;;;;4995915;28;20081;-76
2021/11/01 10:02:19;;;;;;;0.20;0.20;;;12.40;99.90;;;;;;5013424;28;20025;-76
2021/11/01 10:04:46;;;;;;;0.20;0.20;;;12.50;99.90;;;;;;5011928;28;20104;-76
2021/11/01 10:07:19;;;;;;;0.20;0.20;;;12.50;99.90;;;;;;5011998;28;20390;-76
2021/11/01 10:09:53;;;;;;;1.02;0.43;;;12.30;99.90;;;;;;4995698;28;20022;-76
2021/11/01 10:12:21;;;;;;;0.10;0.10;;;12.20;99.90;;;;;;4995888;28;20022;-76
2021/11/01 10:14:58;;;;;;;0.13;0.13;;;12.20;99.90;;;;;;5012921;28;20030;-76
2021/11/01 10:17:36;;;;;;;0.17;0.17;;;12.20;99.90;;;;;;5011947;28;20092;-76
2021/11/01 10:20:10;;;;;;;0.20;0.20;;;12.30;99.90;;;;;;5013422;28;20028;-76
2021/11/01 10:22:39;;;;;;;0.20;0.20;;;12.30;99.90;;;;;;5011969;28;20026;-76
2021/11/01 10:25:07;;;;;;;0.10;0.10;;;12.40;99.90;;;;;;5028109;28;20022;-76
2021/11/01 10:27:40;;;;;;;0.20;0.20;;;12.40;99.90;;;;;;5012910;28;20087;-75
2021/11/01 10:30:12;;;;;;;0.30;0.30;;;12.40;99.90;;;;;;5011516;28;20021;-75
2021/11/01 10:32:44;;;;;;;0.20;0.20;;;12.30;99.90;;;;;;5012959;28;20041;-77
2021/11/01 10:35:30;;;;;;;1.13;0.63;;;12.40;99.90;;;;;;5011491;28;20026;-77
2021/11/01 10:38:18;;;;;;;0.20;0.20;;;12.10;99.90;;;;;;5012642;28;20025;-75
2021/11/01 11:14:02;;;;;;;0.20;0.20;;;11.50;99.90;;;;;;5008392;28;20494;-75
2021/11/01 11:47:42;;;;;;;0.20;0.20;;;11.60;99.90;;;;;;5013040;28;20112;-76
2021/11/01 11:50:26;;;;;;;0.20;0.20;;;11.70;99.90;;;;;;5002976;28;20045;-76
2021/11/01 11:52:52;;;;;;;0.20;0.20;;;11.60;99.90;;;;;;5011893;28;20014;-75
2021/11/01 11:55:25;;;;;;;0.30;0.30;;;11.60;99.90;;;;;;5012623;28;20084;-75
2021/11/01 11:58:03;;;;;;;2.72;0.95;;;11.60;99.90;;;;;;4996266;28;20035;-76
2021/11/01 12:00:32;;;;;;;0.20;0.20;;;11.60;99.90;;;;;;5011618;28;20069;-76
2021/11/01 12:03:15;;;;;;;0.20;0.20;;;11.40;99.90;;;;;;5010283;28;20050;-75
2021/11/01 12:08:37;;;;;;;;;;;11.60;99.90;;;;;;5012297;28;20386;-76
2021/11/01 12:19:15;;;;;;;0.10;0.10;;;11.40;99.90;;;;;;4957722;28;20526;-76
2021/11/01 12:21:43;;;;;;;0.47;0.40;;;11.40;99.90;;;;;;4973873;28;20031;-76
2021/11/01 12:24:24;;;;;;;0.10;0.10;;;11.40;99.90;;;;;;4994746;28;20405;-76
2021/11/01 12:27:03;;;;;;;0.20;0.20;;;11.30;99.90;;;;;;5015294;28;20018;-76
2021/11/01 12:29:30;;;;;;;0.20;0.20;;;11.30;99.90;;;;;;5014063;28;20030;-76
2021/11/01 12:32:01;;;;;;;0.20;0.20;;;11.40;99.90;;;;;;5015600;28;20105;-76
2021/11/01 12:34:27;;;;;;;0.10;0.10;;;11.60;99.90;;;;;;5015118;28;20533;-76
2021/11/01 12:58:04;;;;;;;0.20;0.20;;;11.50;99.90;;;;;;5013333;28;20030;-76
2021/11/01 13:00:39;;;;;;;0.20;0.20;;;11.60;99.90;;;;;;5014483;28;20022;-76
2021/11/01 13:03:21;;;;;;;0.20;0.20;;;11.80;99.90;;;;;;4996827;28;20124;-76
2021/11/01 13:06:00;;;;;;;0.20;0.20;;;11.80;99.90;;;;;;5014304;28;20433;-76
2021/11/01 13:08:34;;;;;;;2.20;2.08;;;11.80;99.90;;;;;;5013485;28;20108;-76
2021/11/01 13:11:25;;;;;;;0.15;0.15;;;11.80;99.90;;;;;;5013273;28;20022;-76
2021/11/01 13:19:14;;;;;;;1.25;1.15;;;11.70;99.90;;;;;;4993468;28;20026;-76
2021/11/01 13:24:11;;;;;;;0.20;0.20;;;11.70;99.90;;;;;;4994559;28;20478;-76
2021/11/01 13:34:57;;;;;;;0.20;0.20;;;11.80;99.90;;;;;;4956296;28;20022;-76
2021/11/01 13:37:35;;;;;;;0.20;0.20;;;11.60;99.90;;;;;;4973005;28;20030;-76
2021/11/01 13:40:06;;;;;;;0.20;0.20;;;11.50;99.90;;;;;;4986771;28;20031;-76
2021/11/01 13:42:32;;;;;;;0.20;0.20;;;11.60;99.90;;;;;;4993090;28;20027;-76
2021/11/01 13:45:13;;;;;;;0.20;0.20;;;11.40;99.90;;;;;;4993980;28;20027;-77
2021/11/01 13:47:49;;;;;;;0.10;0.10;;;11.20;99.90;;;;;;4992907;28;20022;-77
2021/11/01 13:50:18;;;;;;;1.10;1.10;;;11.20;99.90;;;;;;5013557;28;20030;-76
2021/11/01 13:53:08;;;;;;;0.20;0.20;;;11.20;99.90;;;;;;5013657;28;20025;-76
2021/11/01 13:55:45;;;;;;;0.20;0.20;;;11.20;99.90;;;;;;5012144;28;20474;-76
2021/11/01 13:58:31;;;;;;;0.70;0.70;;;11.30;99.90;;;;;;5012191;28;20108;-76
2021/11/01 14:17:18;;;;;;;0.63;0.50;;;10.70;99.90;;;;;;5011717;28;20029;-76
2021/11/01 15:25:29;;;;;;;0.20;0.20;;;9.10;99.90;;;;;;5012034;28;20037;-76
2021/11/01 15:40:36;;;;;;;1.52;0.50;;;9.20;99.90;;;;;;5012060;28;20095;-78
2021/11/01 16:18:13;;;;;;;0.20;0.20;;;9.00;99.90;;;;;;5035138;28;20064;-75
2021/11/01 16:20:40;;;;;;;0.30;0.30;;;8.80;99.90;;;;;;5035103;28;20022;-75
2021/11/01 16:25:33;;;;;;;0.38;0.38;;;9.00;99.90;;;;;;5034897;28;20036;-76
2021/11/01 16:27:59;;;;;;;0.20;0.20;;;9.20;99.90;;;;;;5035562;28;20013;-73
2021/11/01 16:30:29;;;;;;;0.20;0.20;;;9.20;99.90;;;;;;5034023;28;20060;-75
2021/11/01 16:33:02;;;;;;;0.50;0.50;;;9.10;99.90;;;;;;5017222;28;20079;-75
2021/11/01 16:35:35;;;;;;;0.20;0.20;;;8.90;99.90;;;;;;5050211;28;20037;-75
2021/11/01 16:38:14;;;;;;;0.45;0.45;;;8.90;99.90;;;;;;5035051;28;20087;-75
2021/11/01 16:40:43;;;;;;;0.20;0.20;;;8.80;99.90;;;;;;5017206;28;20083;-75
2021/11/01 16:43:17;;;;;;;1.02;0.45;;;8.90;99.90;;;;;;5033375;28;20083;-76
2021/11/01 16:45:46;;;;;;;0.13;0.13;;;8.90;99.90;;;;;;5034791;28;20029;-76
2021/11/01 16:48:12;;;;;;;0.20;0.20;;;8.90;99.90;;;;;;5033604;28;20025;-75
2021/11/01 16:50:38;;;;;;;0.38;0.38;;;8.80;99.90;;;;;;5016800;28;20017;-75
2021/11/01 16:53:05;;;;;;;0.20;0.20;;;8.90;99.90;;;;;;5016965;28;20143;-74
2021/11/01 16:55:38;;;;;;;0.20;0.20;;;8.80;99.90;;;;;;5049569;28;20187;-75
2021/11/01 16:58:43;;;;;;;0.20;0.20;;;8.90;99.90;;;;;;5033409;28;20108;-75
2021/11/01 17:01:06;;;;;;;0.20;0.20;;;9.10;99.90;;;;;;5030022;28;20040;-75
2021/11/01 17:03:45;;;;;;;11.60;4.38;;;9.10;99.90;;;;;;5034377;28;20104;-75
2021/11/01 17:06:32;;;;;;;0.28;0.28;;;9.10;99.90;;;;;;5034242;28;20548;-75
2021/11/01 17:22:54;;;;;;;0.20;0.20;;;8.80;99.90;;;;;;5033742;28;20536;-75
2021/11/01 17:25:29;;;;;;;0.55;0.55;;;8.80;99.90;;;;;;5033367;28;20021;-76
2021/11/01 18:24:39;;;;;;;0.20;0.20;;;8.70;99.90;;;;;;5019904;28;20548;-75
2021/11/01 18:40:23;;;;;;;0.10;0.10;;;8.80;99.90;;;;;;5052636;28;20029;-74
2021/11/01 18:51:14;;;;;;;0.30;0.30;;;8.80;99.90;;;;;;5052313;28;20036;-73
2021/11/01 18:53:49;;;;;;;0.13;0.13;;;8.80;99.90;;;;;;5023144;28;20029;-73
2021/11/01 18:56:15;;;;;;;0.20;0.20;;;8.80;99.90;;;;;;5030762;28;20037;-73
2021/11/01 18:58:42;;;;;;;0.20;0.20;;;9.00;99.90;;;;;;5032150;28;20029;-73
2021/11/01 19:01:10;;;;;;;0.30;0.30;;;9.00;99.90;;;;;;5034575;28;20026;-73
2021/11/01 19:03:42;;;;;;;0.20;0.20;;;9.10;99.90;;;;;;5034543;28;20026;-73
2021/11/01 20:04:12;;;;;;;0.40;0.40;;;8.10;99.90;;;;;;5031507;28;20092;-73
2021/11/01 20:15:01;;;;;;;0.20;0.20;;;7.70;99.90;;;;;;5031289;28;20091;-73
2021/11/01 21:26:47;;;;;;;0.20;0.20;;;8.10;99.90;;;;;;5034055;28;20108;-73
2021/11/01 21:29:13;;;;;;;0.20;0.20;;;8.10;99.90;;;;;;5032914;28;20496;-73
2021/11/01 21:31:39;;;;;;;0.20;0.20;;;8.20;99.90;;;;;;5037169;28;20109;-72
2021/11/01 21:34:07;;;;;;;0.20;0.20;;;8.30;99.90;;;;;;5035659;28;20037;-72
2021/11/01 21:36:34;;;;;;;1.27;0.80;;;8.30;99.90;;;;;;5019215;28;20072;-72
2021/11/01 21:39:00;;;;;;;0.30;0.30;;;8.10;99.90;;;;;;5019363;28;20618;-71
2021/11/01 21:41:27;;;;;;;0.20;0.20;;;8.00;99.90;;;;;;5019486;28;20034;-72
2021/11/01 21:43:54;;;;;;;0.30;0.30;;;7.90;99.90;;;;;;5019136;28;20053;-72
2021/11/01 21:46:20;;;;;;;0.52;0.52;;;7.90;99.90;;;;;;5019002;28;20025;-72
2021/11/01 21:48:46;;;;;;;0.20;0.20;;;7.80;99.90;;;;;;5034917;28;20063;-72
2021/11/01 21:51:15;;;;;;;0.20;0.20;;;7.80;99.90;;;;;;5035289;28;20064;-72
2021/11/01 21:53:46;;;;;;;0.20;0.20;;;7.90;99.90;;;;;;5035532;28;20060;-72
2021/11/01 21:56:14;;;;;;;0.30;0.30;;;7.80;99.90;;;;;;5030516;23;20136;-73
2021/11/01 22:01:41;;;;;;;0.20;0.20;;;7.70;99.90;;;;;;4994100;28;20030;-75
2021/11/01 22:18:05;;;;;;;0.20;0.20;;;7.40;99.90;;;;;;4994130;28;20032;-76
2021/11/01 22:20:34;;;;;;;0.20;0.20;;;7.40;99.90;;;;;;5008752;28;20558;-76
2021/11/01 22:23:12;;;;;;;0.20;0.20;;;7.50;99.90;;;;;;4992409;28;20027;-76
2021/11/01 22:34:22;;;;;;;0.20;0.20;;;7.70;99.90;;;;;;4993461;28;20049;-76
2021/11/01 22:39:49;;;;;;;0.20;0.20;;;7.70;99.90;;;;;;4993354;28;20030;-74
2021/11/01 22:58:00;;;;;;;0.20;0.20;;;7.90;99.90;;;;;;4992672;28;20034;-74
2021/11/01 23:00:45;;;;;;;0.20;0.20;;;7.80;99.90;;;;;;4992977;28;20117;-74
2021/11/01 23:03:22;;;;;;;0.30;0.30;;;7.60;99.90;;;;;;4993050;28;20022;-74
2021/11/01 23:33:10;;;;;;;0.30;0.30;;;7.60;99.90;;;;;;4992528;28;20500;-76
2021/11/01 23:35:36;;;;;;;0.20;0.20;;;7.40;99.90;;;;;;4991104;28;20121;-76
2021/11/01 23:38:02;;;;;;;0.20;0.20;;;7.20;99.90;;;;;;4992471;28;20030;-76
2021/11/01 23:40:28;;;;;;;0.20;0.20;;;7.00;99.90;;;;;;4992375;28;20026;-75
2021/11/01 23:42:53;;;;;;;0.30;0.30;;;6.90;99.90;;;;;;4990909;28;20452;-76
2021/11/01 23:45:19;;;;;;;0.20;0.20;;;6.80;99.90;;;;;;4992260;28;20026;-76
2021/11/01 23:47:45;;;;;;;0.20;0.20;;;6.80;99.90;;;;;;4992357;28;20470;-76
2021/11/01 23:50:11;;;;;;;2.72;0.22;;;6.90;99.90;;;;;;4992434;28;20019;-76
2021/11/01 23:52:41;;;;;;;0.52;0.40;;;7.00;99.90;;;;;;4992493;28;20106;-76
2021/11/01 23:55:10;;;;;;;0.17;0.17;;;6.90;99.90;;;;;;4992281;28;20030;-76
2021/11/01 23:57:36;;;;;;;0.28;0.28;;;6.80;99.90;;;;;;4992289;28;20065;-76
